Terminal Aerodrome Forecast
Issued by NWS

Home | Current Version | Previous Version | Text Only | Print | Product List | Glossary On
Versions: 1 2 3 4 5 6 7 8 9 10 11 12 13 14 15 16 17
000
FTUS43 KGRB 040537
TAFATW
TAF
KATW 040537Z 0406/0506 36004KT P6SM SCT015
      TEMPO 0406/0408 3SM BR BKN015
     FM040800 VRB02KT 2SM BR SCT004 BKN015
      TEMPO 0408/0412 1/2SM FG BKN004
     FM041500 06005KT P6SM BKN015
     FM041700 08005KT P6SM SCT020 SCT035
     FM042100 14004KT P6SM SCT040
     FM050400 15003KT 5SM BR SKC=

USA.gov is the U.S. government's official web portal to all federal, state and local government web resources and services.